Time;durP1;ratioP1;P1;durP2;ratioP2;P2;SDS_P1;SDS_P2;PMS_P1;PMS_P2;Temp;Humidity;BMP_temperature;BMP_pressure;BME280_temperature;BME280_humidity;BME280_pressure;Samples;Min_cycle;Max_cycle;Signal;HPM_P1;HPM_P2
2022/07/02 00:01:01;;;;;;;6.95;4.72;;;;;;;22.67;52.21;94102.97;5144768;28;20072;-80
2022/07/02 00:03:33;;;;;;;10.35;5.60;;;;;;;22.72;52.70;94106.09;5144869;28;20019;-80
2022/07/02 00:06:01;;;;;;;9.40;5.32;;;;;;;22.73;52.51;94104.91;5145499;28;20025;-80
2022/07/02 00:08:28;;;;;;;8.27;5.07;;;;;;;22.70;52.84;94099.50;5145729;28;20019;-80
2022/07/02 00:10:55;;;;;;;9.82;6.00;;;;;;;22.73;52.89;94101.44;5144731;28;20247;-80
2022/07/02 00:13:22;;;;;;;9.95;5.78;;;;;;;22.67;52.83;94106.47;5143885;28;20022;-80
2022/07/02 00:15:48;;;;;;;11.25;6.05;;;;;;;22.62;52.25;94102.19;5143644;28;20019;-80
2022/07/02 00:18:14;;;;;;;10.35;5.82;;;;;;;22.69;51.98;94116.94;5144016;28;20332;-80
2022/07/02 00:20:42;;;;;;;7.72;5.43;;;;;;;22.70;52.31;94110.38;5143672;28;20019;-80
2022/07/02 00:23:08;;;;;;;12.23;5.45;;;;;;;22.74;53.52;94113.88;5142925;28;20031;-80
2022/07/02 00:25:41;;;;;;;11.77;6.25;;;;;;;22.73;53.59;94106.88;5143474;28;20206;-80
2022/07/02 00:28:08;;;;;;;10.60;5.93;;;;;;;22.69;53.65;94104.13;5143319;28;20039;-78
2022/07/02 00:30:34;;;;;;;18.45;5.10;;;;;;;22.63;53.47;94109.19;5143266;27;20057;-78
2022/07/02 00:33:01;;;;;;;7.95;5.72;;;;;;;22.60;53.02;94104.50;5146451;27;20240;-78
2022/07/02 00:35:27;;;;;;;7.43;5.32;;;;;;;22.59;52.75;94091.31;5147228;27;20027;-80
2022/07/02 00:37:54;;;;;;;15.50;5.72;;;;;;;22.56;52.77;94092.84;5147276;27;20023;-78
2022/07/02 00:40:20;;;;;;;10.45;5.25;;;;;;;22.55;53.43;94098.66;5146933;27;20373;-80
2022/07/02 00:42:46;;;;;;;7.80;5.25;;;;;;;22.52;53.91;94097.50;5147236;27;20051;-80
2022/07/02 00:45:12;;;;;;;7.90;5.50;;;;;;;22.48;53.94;94096.72;5147265;27;20022;-80
2022/07/02 00:47:41;;;;;;;12.50;5.80;;;;;;;22.44;54.18;94102.13;5147365;27;20026;-79
2022/07/02 00:50:07;;;;;;;8.13;4.93;;;;;;;22.42;54.57;94100.94;5147352;27;20015;-79
2022/07/02 00:52:34;;;;;;;8.13;5.55;;;;;;;22.41;54.35;94110.28;5147461;27;20108;-80
2022/07/02 00:54:59;;;;;;;9.57;5.55;;;;;;;22.39;54.14;94123.47;5147102;27;20015;-80
2022/07/02 00:57:25;;;;;;;14.43;5.43;;;;;;;22.34;54.70;94116.44;5147075;27;20019;-78
2022/07/02 00:59:50;;;;;;;11.48;6.20;;;;;;;22.32;54.36;94113.31;5147053;27;20030;-79
2022/07/02 01:02:21;;;;;;;8.95;5.72;;;;;;;22.31;54.14;94113.69;5128643;27;20105;-80
2022/07/02 01:04:48;;;;;;;8.45;5.70;;;;;;;22.29;53.01;94114.09;5128814;27;20025;-80
2022/07/02 01:07:15;;;;;;;8.07;5.18;;;;;;;22.26;53.25;94116.78;5146589;27;20110;-80
2022/07/02 01:12:29;;;;;;;6.93;5.68;;;;;;;22.19;54.41;94118.28;5146774;27;20060;-80
2022/07/02 01:14:56;;;;;;;8.00;5.47;;;;;;;22.19;54.56;94118.28;5146716;27;20094;-80
2022/07/02 01:17:23;;;;;;;8.65;5.55;;;;;;;22.19;54.89;94102.00;5146595;27;20019;-80
2022/07/02 01:19:49;;;;;;;9.48;5.72;;;;;;;22.11;55.05;94100.41;5146806;27;20090;-80
2022/07/02 01:22:19;;;;;;;10.30;6.97;;;;;;;22.09;55.18;94100.00;5146747;27;20050;-80
2022/07/02 01:24:50;;;;;;;10.48;5.28;;;;;;;22.09;54.99;94096.53;5146614;27;20220;-80
2022/07/02 01:27:17;;;;;;;9.48;5.43;;;;;;;22.09;55.25;94102.72;5146316;27;20086;-80
2022/07/02 01:29:43;;;;;;;7.40;5.05;;;;;;;22.07;54.81;94098.84;5146377;27;20094;-80
2022/07/02 01:32:09;;;;;;;9.27;4.78;;;;;;;22.06;53.83;94100.00;5146048;27;20026;-80
2022/07/02 01:34:43;;;;;;;12.63;4.93;;;;;;;22.05;54.70;94096.50;5146379;27;20019;-80
2022/07/02 01:37:14;;;;;;;9.93;5.40;;;;;;;22.00;54.09;94094.13;5146378;27;20019;-80
2022/07/02 01:39:41;;;;;;;9.48;5.35;;;;;;;21.97;55.02;94084.84;5146324;27;20098;-80
2022/07/02 01:42:07;;;;;;;12.23;5.20;;;;;;;21.91;55.49;94097.19;5145457;27;20042;-80
2022/07/02 01:44:34;;;;;;;9.38;5.95;;;;;;;21.86;53.93;94092.16;5146089;27;20127;-79
2022/07/02 01:47:02;;;;;;;8.90;5.00;;;;;;;21.82;54.38;94089.41;5146025;27;20089;-79
2022/07/02 01:49:27;;;;;;;12.63;5.25;;;;;;;21.80;54.63;94090.94;5145889;27;20320;-80
2022/07/02 01:51:53;;;;;;;9.98;5.93;;;;;;;21.82;55.22;94097.56;5145699;27;20026;-81
2022/07/02 01:54:18;;;;;;;15.32;5.70;;;;;;;21.79;55.49;94090.16;5146178;27;20030;-81
2022/07/02 01:56:44;;;;;;;10.02;5.40;;;;;;;21.79;55.81;94086.66;5145611;27;20019;-81
2022/07/02 01:59:09;;;;;;;8.32;4.95;;;;;;;21.74;54.99;94098.66;5145616;27;20481;-81
2022/07/02 02:01:35;;;;;;;8.65;5.43;;;;;;;21.73;54.59;94088.97;5145605;27;20018;-81
2022/07/02 02:04:00;;;;;;;9.70;6.10;;;;;;;21.72;54.90;94098.25;5145599;27;20015;-81
2022/07/02 02:06:27;;;;;;;11.07;6.18;;;;;;;21.70;54.84;94103.28;5145728;27;20079;-81
2022/07/02 02:08:53;;;;;;;14.70;6.20;;;;;;;21.68;55.16;94099.41;5145511;27;20029;-80
2022/07/02 02:11:18;;;;;;;12.23;6.50;;;;;;;21.66;55.68;94101.69;5145759;27;20023;-79
2022/07/02 02:13:44;;;;;;;9.35;6.38;;;;;;;21.60;55.95;94095.88;5145538;27;20023;-79
2022/07/02 02:16:09;;;;;;;13.18;6.85;;;;;;;21.59;56.13;94086.16;5145449;27;20054;-80
2022/07/02 02:18:34;;;;;;;7.90;5.85;;;;;;;21.59;56.22;94086.16;5145371;27;20023;-79
2022/07/02 02:21:00;;;;;;;8.55;6.25;;;;;;;21.60;56.51;94093.91;5145173;27;20039;-79
2022/07/02 02:23:25;;;;;;;9.18;6.55;;;;;;;21.61;57.39;94100.88;5145410;27;20086;-79
2022/07/02 02:25:51;;;;;;;12.32;5.35;;;;;;;21.59;57.47;94091.56;5145437;27;20320;-79
2022/07/02 02:28:16;;;;;;;9.55;5.95;;;;;;;21.60;57.90;94098.56;5145170;27;20031;-79
2022/07/02 02:30:42;;;;;;;8.93;5.85;;;;;;;21.60;58.01;94096.63;5145234;27;20220;-79
2022/07/02 02:33:07;;;;;;;9.02;6.55;;;;;;;21.53;58.04;94098.50;5144948;27;20015;-79
2022/07/02 02:35:33;;;;;;;14.65;6.65;;;;;;;21.53;57.44;94115.56;5144919;27;20089;-79
2022/07/02 02:37:58;;;;;;;12.43;5.55;;;;;;;21.47;57.56;94113.56;5126696;27;20019;-79
2022/07/02 02:40:23;;;;;;;10.35;6.28;;;;;;;21.41;58.03;94113.91;5145007;27;20030;-79
2022/07/02 02:42:49;;;;;;;10.82;6.70;;;;;;;21.35;58.17;94122.75;5144631;27;20063;-79
2022/07/02 02:45:14;;;;;;;12.27;6.20;;;;;;;21.29;58.77;94127.75;5126287;27;20201;-79
2022/07/02 02:47:40;;;;;;;10.07;6.53;;;;;;;21.25;58.93;94126.94;5144788;27;20068;-79
2022/07/02 02:50:06;;;;;;;7.80;5.95;;;;;;;21.19;59.07;94121.09;5144596;27;20046;-79
2022/07/02 02:52:31;;;;;;;11.43;5.80;;;;;;;21.15;59.66;94125.69;5144456;27;20109;-78
2022/07/02 02:54:57;;;;;;;9.00;7.00;;;;;;;21.09;59.68;94129.91;5143655;27;20106;-78
2022/07/02 02:57:22;;;;;;;12.82;6.97;;;;;;;21.06;60.08;94127.16;5144729;27;20030;-78
2022/07/02 02:59:48;;;;;;;10.10;6.35;;;;;;;21.03;60.92;94137.56;5144669;27;20079;-78
2022/07/02 03:02:13;;;;;;;10.32;6.75;;;;;;;20.99;60.96;94136.75;5144490;27;20041;-78
2022/07/02 03:04:39;;;;;;;9.35;6.55;;;;;;;20.97;60.81;94130.94;5144646;27;20015;-78
2022/07/02 03:07:04;;;;;;;10.75;6.60;;;;;;;20.94;60.81;94137.09;5144588;27;20305;-79
2022/07/02 03:09:30;;;;;;;14.75;7.43;;;;;;;20.92;61.60;94142.09;5144179;27;20087;-78
2022/07/02 03:11:55;;;;;;;8.18;6.97;;;;;;;20.88;61.60;94138.56;5144171;27;20217;-78
2022/07/02 03:14:21;;;;;;;15.15;7.60;;;;;;;20.82;61.56;94137.34;5144708;27;20057;-79
2022/07/02 03:16:46;;;;;;;14.35;7.82;;;;;;;20.79;61.64;94138.88;5144312;27;20323;-79
2022/07/02 03:19:12;;;;;;;16.58;8.13;;;;;;;20.78;61.63;94137.34;5144154;27;20015;-79
2022/07/02 03:21:37;;;;;;;12.40;7.93;;;;;;;20.85;61.99;94144.75;5144303;27;20038;-79
2022/07/02 03:24:02;;;;;;;15.77;8.02;;;;;;;20.88;61.93;94146.69;5144113;27;20037;-79
2022/07/02 03:26:28;;;;;;;12.85;7.72;;;;;;;20.91;62.18;94148.69;5144187;27;20039;-79
2022/07/02 03:28:53;;;;;;;9.95;7.10;;;;;;;20.87;62.37;94139.75;5144192;27;20098;-79
2022/07/02 03:31:19;;;;;;;11.50;7.18;;;;;;;20.89;62.77;94148.28;5144058;27;20011;-79
2022/07/02 03:33:44;;;;;;;21.80;8.00;;;;;;;20.88;63.21;94152.13;5144126;27;20083;-79
2022/07/02 03:36:11;;;;;;;11.85;7.32;;;;;;;20.89;63.06;94156.41;5143866;27;20106;-79
2022/07/02 03:38:37;;;;;;;12.10;8.45;;;;;;;20.91;63.20;94161.47;5144086;27;20026;-79
2022/07/02 03:41:03;;;;;;;14.50;8.02;;;;;;;20.89;63.18;94163.75;5144024;27;20056;-79
2022/07/02 03:43:28;;;;;;;13.35;7.95;;;;;;;20.93;63.73;94159.94;5143729;28;20047;-79
2022/07/02 03:45:54;;;;;;;15.70;8.23;;;;;;;20.96;63.41;94163.81;5143817;28;20033;-79
2022/07/02 03:48:19;;;;;;;16.52;7.47;;;;;;;21.00;63.09;94168.16;5143851;28;20019;-79
2022/07/02 03:50:45;;;;;;;15.77;8.63;;;;;;;21.02;63.35;94162.31;5143750;28;20056;-80
2022/07/02 03:53:10;;;;;;;13.85;8.23;;;;;;;21.03;62.98;94161.97;5143868;28;20023;-79
2022/07/02 03:55:36;;;;;;;13.80;8.07;;;;;;;21.10;62.64;94161.25;5144420;28;20023;-79
2022/07/02 03:58:02;;;;;;;12.50;7.55;;;;;;;21.15;63.19;94163.63;5143855;28;20030;-79
2022/07/02 04:00:27;;;;;;;12.85;9.57;;;;;;;21.20;62.81;94165.22;5125258;28;20023;-79
2022/07/02 04:02:53;;;;;;;15.88;8.25;;;;;;;21.29;62.86;94167.63;5143867;28;20046;-79
2022/07/02 04:05:18;;;;;;;11.25;7.78;;;;;;;21.34;63.17;94173.47;5144712;27;20012;-80
2022/07/02 04:07:44;;;;;;;10.57;7.63;;;;;;;21.44;62.38;94177.47;5147868;27;20313;-80
2022/07/02 04:10:09;;;;;;;13.60;8.85;;;;;;;21.51;63.24;94179.47;5147870;27;20265;-80
2022/07/02 04:12:35;;;;;;;12.93;8.05;;;;;;;21.57;63.10;94175.25;5147946;27;20090;-80
2022/07/02 04:15:00;;;;;;;12.70;8.27;;;;;;;21.63;62.29;94179.16;5147709;27;20023;-80
2022/07/02 04:17:26;;;;;;;12.82;8.40;;;;;;;21.69;61.96;94174.97;5147794;27;20019;-80
2022/07/02 04:19:51;;;;;;;15.32;8.70;;;;;;;21.75;61.90;94184.31;5147773;27;20015;-78
2022/07/02 04:22:17;;;;;;;17.88;8.40;;;;;;;21.83;61.65;94179.72;5147566;27;20019;-78
2022/07/02 04:24:42;;;;;;;14.40;7.85;;;;;;;21.94;61.30;94177.06;5147753;27;20015;-80
2022/07/02 04:27:08;;;;;;;16.92;8.57;;;;;;;22.03;60.59;94172.09;5147568;27;20094;-80
2022/07/02 04:29:33;;;;;;;18.67;8.85;;;;;;;22.12;60.09;94171.75;5147764;27;20015;-78
2022/07/02 04:31:59;;;;;;;15.23;9.57;;;;;;;22.20;60.70;94176.84;5147531;27;20038;-78
2022/07/02 04:34:24;;;;;;;20.88;8.65;;;;;;;22.30;61.26;94178.09;5147643;27;20087;-78
2022/07/02 04:36:49;;;;;;;14.60;9.57;;;;;;;22.26;61.54;94180.00;5147366;27;20018;-78
2022/07/02 04:39:15;;;;;;;18.80;8.45;;;;;;;22.25;60.76;94183.91;5147406;27;20046;-78
2022/07/02 04:41:40;;;;;;;21.63;10.02;;;;;;;22.15;60.80;94187.31;5147455;27;20257;-78
2022/07/02 04:44:06;;;;;;;13.40;9.20;;;;;;;22.13;60.58;94192.31;5147407;27;20019;-77
2022/07/02 04:46:31;;;;;;;20.10;9.27;;;;;;;22.11;60.00;94187.28;5147172;27;20331;-78
2022/07/02 04:48:56;;;;;;;15.98;9.75;;;;;;;22.13;59.90;94195.81;5147420;27;20019;-79
2022/07/02 04:51:22;;;;;;;16.50;9.05;;;;;;;22.20;61.12;94189.63;5129398;27;20138;-76
2022/07/02 04:53:48;;;;;;;24.92;9.95;;;;;;;22.26;60.51;94187.38;5146963;27;20301;-80
2022/07/02 04:56:13;;;;;;;19.10;10.23;;;;;;;22.24;59.74;94188.53;5128895;27;20034;-79
2022/07/02 04:58:38;;;;;;;24.42;10.63;;;;;;;22.33;59.81;94187.44;5147179;27;20022;-80
2022/07/02 05:01:04;;;;;;;17.60;10.35;;;;;;;22.39;59.26;94196.78;5147079;27;20139;-79
2022/07/02 05:03:29;;;;;;;21.67;11.07;;;;;;;22.46;58.98;94188.66;5146796;27;20210;-77
2022/07/02 05:05:55;;;;;;;16.20;10.38;;;;;;;22.48;59.12;94188.28;5147298;27;20269;-78
2022/07/02 05:08:24;;;;;;;14.68;10.40;;;;;;;22.48;59.15;94193.72;5147437;27;20144;-78
2022/07/02 05:10:50;;;;;;;21.00;10.98;;;;;;;22.46;59.63;94191.38;5146965;27;20030;-77
2022/07/02 05:13:15;;;;;;;23.00;11.52;;;;;;;22.44;59.22;94191.75;5147244;27;20276;-77
2022/07/02 05:15:41;;;;;;;18.30;9.75;;;;;;;22.52;58.58;94197.22;5146981;27;20026;-78
2022/07/02 05:18:06;;;;;;;15.55;9.40;;;;;;;22.57;58.36;94185.97;5146325;27;20030;-79
2022/07/02 05:20:31;;;;;;;17.23;9.90;;;;;;;22.60;58.25;94196.88;5147038;27;20041;-79
2022/07/02 05:22:57;;;;;;;38.05;11.45;;;;;;;22.68;57.74;94200.41;5147110;27;20026;-80
2022/07/02 05:25:22;;;;;;;21.33;10.20;;;;;;;22.71;57.85;94191.47;5146828;27;20019;-81
2022/07/02 05:27:48;;;;;;;25.27;10.68;;;;;;;22.80;58.25;94202.00;5146492;27;20031;-79
2022/07/02 05:30:13;;;;;;;29.58;11.10;;;;;;;22.90;57.59;94205.91;5146481;27;20031;-79
2022/07/02 05:32:39;;;;;;;24.35;10.57;;;;;;;22.91;57.43;94210.97;5146497;27;20091;-78
2022/07/02 05:35:04;;;;;;;17.02;9.80;;;;;;;22.96;57.63;94212.50;5146354;27;20068;-81
2022/07/02 05:37:30;;;;;;;20.17;10.32;;;;;;;23.03;57.59;94212.59;5146391;27;20030;-80
2022/07/02 05:39:55;;;;;;;22.20;10.75;;;;;;;23.08;56.99;94211.41;5146473;27;20038;-80
2022/07/02 05:42:21;;;;;;;20.08;10.50;;;;;;;23.13;56.64;94211.06;5146005;27;20325;-80
2022/07/02 05:44:46;;;;;;;22.80;10.23;;;;;;;23.16;55.92;94216.50;5146225;27;20042;-80
2022/07/02 05:47:11;;;;;;;16.20;8.85;;;;;;;23.20;55.00;94225.47;5146028;27;20090;-79
2022/07/02 05:49:37;;;;;;;20.20;9.52;;;;;;;23.21;55.27;94221.56;5146367;27;20205;-79
2022/07/02 05:52:02;;;;;;;16.33;8.75;;;;;;;23.24;55.65;94214.56;5146206;27;20068;-79
2022/07/02 05:54:28;;;;;;;18.80;8.50;;;;;;;23.35;55.55;94222.78;5146220;27;20015;-79
2022/07/02 05:56:53;;;;;;;12.30;8.35;;;;;;;23.39;54.80;94224.31;5145969;27;20317;-79
2022/07/02 05:59:19;;;;;;;15.40;7.85;;;;;;;23.55;54.97;94220.44;5146029;27;20023;-79
2022/07/02 06:01:44;;;;;;;18.42;8.65;;;;;;;23.69;55.52;94212.31;5145981;27;20019;-79
2022/07/02 06:04:09;;;;;;;18.33;8.50;;;;;;;23.87;54.56;94208.84;5145915;27;20011;-79
2022/07/02 06:09:19;;;;;;;26.77;9.38;;;;;;;23.93;52.71;94223.63;5145898;27;20587;-79
2022/07/02 06:11:44;;;;;;;13.70;8.70;;;;;;;24.00;54.04;94212.72;5145794;27;20023;-80
2022/07/02 06:14:10;;;;;;;17.60;7.85;;;;;;;24.13;53.49;94222.03;5146112;27;20087;-79
2022/07/02 06:16:36;;;;;;;13.00;8.85;;;;;;;24.23;53.56;94220.47;5145675;27;20030;-79
2022/07/02 06:19:02;;;;;;;15.60;8.32;;;;;;;24.34;52.30;94217.72;5145548;27;20027;-82
2022/07/02 06:21:27;;;;;;;13.55;8.48;;;;;;;24.33;53.37;94216.19;5145983;27;20027;-79
2022/07/02 06:23:52;;;;;;;17.85;7.75;;;;;;;24.45;53.22;94217.72;5145274;27;20209;-79
2022/07/02 06:26:18;;;;;;;17.23;7.78;;;;;;;24.58;53.29;94221.59;5145690;27;20111;-79
2022/07/02 06:28:43;;;;;;;13.60;8.30;;;;;;;24.69;52.61;94218.81;5145930;27;20030;-79
2022/07/02 06:31:09;;;;;;;13.32;8.60;;;;;;;24.72;52.42;94216.09;5145624;27;20082;-79
2022/07/02 06:33:34;;;;;;;15.52;8.82;;;;;;;24.55;52.00;94222.41;5145316;27;20040;-80
2022/07/02 06:36:00;;;;;;;16.98;9.15;;;;;;;24.51;52.40;94216.94;5145350;27;20029;-80
2022/07/02 06:38:25;;;;;;;11.05;7.93;;;;;;;24.54;53.15;94224.31;5145351;27;20347;-80
2022/07/02 06:40:53;;;;;;;16.58;7.95;;;;;;;24.49;52.04;94232.88;5145288;27;20023;-80
2022/07/02 06:43:20;;;;;;;13.70;8.80;;;;;;;24.46;53.77;94228.22;5144632;27;20237;-81
2022/07/02 06:45:45;;;;;;;16.15;8.82;;;;;;;24.54;53.47;94227.03;5144723;27;20026;-81
2022/07/02 06:48:11;;;;;;;19.15;9.18;;;;;;;24.57;52.81;94234.44;5145013;27;20058;-81
2022/07/02 06:50:36;;;;;;;24.48;9.40;;;;;;;24.63;53.88;94235.59;5144659;27;20073;-81
2022/07/02 06:53:05;;;;;;;13.88;8.68;;;;;;;24.62;52.22;94228.56;5144708;27;20027;-81
2022/07/02 06:55:30;;;;;;;16.77;9.85;;;;;;;24.63;52.53;94234.81;5145117;27;20027;-80
2022/07/02 06:57:56;;;;;;;18.88;9.00;;;;;;;24.67;52.48;94232.88;5144794;27;20054;-80
2022/07/02 07:00:23;;;;;;;16.90;9.15;;;;;;;24.74;52.51;94232.84;5144420;27;20090;-81
2022/07/02 07:02:49;;;;;;;19.65;8.68;;;;;;;24.77;52.76;94237.50;5144433;27;20379;-81
2022/07/02 07:05:16;;;;;;;20.48;8.93;;;;;;;24.87;52.72;94225.00;5144487;27;20018;-81
2022/07/02 07:07:41;;;;;;;19.63;8.60;;;;;;;24.98;52.27;94230.41;5144521;27;20015;-82
2022/07/02 07:10:07;;;;;;;18.30;9.05;;;;;;;25.07;52.27;94235.44;5144458;27;20217;-82
2022/07/02 07:12:32;;;;;;;16.10;8.20;;;;;;;25.12;51.60;94235.03;5144569;27;20031;-79
2022/07/02 07:15:00;;;;;;;17.48;8.77;;;;;;;25.19;51.07;94240.44;5144559;27;20023;-79
2022/07/02 07:17:26;;;;;;;29.15;8.43;;;;;;;25.25;51.99;94243.56;5144427;27;20023;-79
2022/07/02 07:19:51;;;;;;;15.05;8.82;;;;;;;25.33;50.99;94251.31;5144371;27;20027;-79
2022/07/02 07:22:17;;;;;;;16.00;8.32;;;;;;;25.38;50.43;94253.63;5144296;27;20028;-79
2022/07/02 07:24:42;;;;;;;13.63;8.40;;;;;;;25.42;50.64;94253.59;5144558;27;20249;-79
2022/07/02 07:27:07;;;;;;;15.85;7.63;;;;;;;25.48;50.61;94245.78;5144258;27;20026;-80
2022/07/02 07:29:33;;;;;;;10.63;8.32;;;;;;;25.53;53.08;94243.41;5144082;27;20154;-79
2022/07/02 07:31:58;;;;;;;29.30;8.50;;;;;;;25.61;51.39;94242.19;5144236;27;20023;-80
2022/07/02 07:34:24;;;;;;;18.10;7.63;;;;;;;25.67;50.51;94247.22;5125705;27;20023;-80
2022/07/02 07:36:51;;;;;;;14.98;8.48;;;;;;;25.70;49.62;94252.63;5143957;27;20027;-80
2022/07/02 07:39:17;;;;;;;14.38;7.55;;;;;;;25.88;49.72;94251.75;5144189;27;20023;-80
2022/07/02 07:41:42;;;;;;;12.63;7.55;;;;;;;25.97;48.68;94252.09;5143666;27;20078;-80
2022/07/02 07:44:08;;;;;;;11.70;8.35;;;;;;;26.06;47.98;94251.66;5143721;27;20254;-80
2022/07/02 07:46:33;;;;;;;16.45;8.35;;;;;;;26.14;48.76;94253.91;5144019;27;20206;-80
2022/07/02 07:48:59;;;;;;;15.82;9.35;;;;;;;26.17;47.62;94250.34;5144113;28;20268;-81
2022/07/02 07:51:24;;;;;;;16.83;9.20;;;;;;;26.14;47.31;94248.44;5143964;28;20345;-80
2022/07/02 07:53:50;;;;;;;14.98;8.27;;;;;;;26.23;47.44;94243.28;5143847;28;20242;-80
2022/07/02 07:56:18;;;;;;;12.27;7.88;;;;;;;26.32;47.28;94245.56;5144047;28;20027;-80
2022/07/02 07:58:44;;;;;;;21.73;8.38;;;;;;;26.43;48.11;94245.44;5143860;28;20102;-80
2022/07/02 08:01:10;;;;;;;14.15;8.07;;;;;;;26.51;46.95;94255.13;5143948;28;20019;-80
2022/07/02 08:03:35;;;;;;;14.52;8.40;;;;;;;26.58;47.18;94249.63;5143265;28;20067;-80
2022/07/02 08:06:01;;;;;;;12.15;7.90;;;;;;;26.59;47.46;94247.66;5143847;28;20348;-80
2022/07/02 08:08:26;;;;;;;10.07;8.35;;;;;;;26.57;47.32;94250.78;5144054;28;20031;-80
2022/07/02 08:10:52;;;;;;;19.25;8.25;;;;;;;26.69;47.99;94246.78;5143762;28;20019;-80
2022/07/02 08:13:17;;;;;;;14.05;8.45;;;;;;;26.82;49.17;94253.25;5143747;28;20056;-81
2022/07/02 08:15:43;;;;;;;17.70;8.35;;;;;;;26.98;48.26;94254.66;5144001;28;20056;-80
2022/07/02 08:18:09;;;;;;;14.55;8.13;;;;;;;27.06;47.84;94256.13;5144003;28;20082;-81
2022/07/02 08:20:35;;;;;;;14.02;8.32;;;;;;;27.12;46.15;94259.94;5143830;28;20030;-80
2022/07/02 08:23:00;;;;;;;18.92;8.18;;;;;;;27.16;45.47;94252.47;5143899;28;20034;-81
2022/07/02 08:25:26;;;;;;;13.10;8.27;;;;;;;27.24;46.18;94249.69;5143866;28;20026;-81
2022/07/02 08:27:51;;;;;;;11.90;8.48;;;;;;;27.31;47.15;94255.81;5143502;28;20370;-81
2022/07/02 08:30:17;;;;;;;12.85;8.30;;;;;;;27.36;46.94;94258.13;5143640;28;20082;-80
2022/07/02 08:32:42;;;;;;;13.02;7.45;;;;;;;27.50;46.61;94259.91;5143964;28;20076;-81
2022/07/02 08:35:08;;;;;;;13.02;8.18;;;;;;;27.63;46.30;94257.34;5143506;28;20064;-80
2022/07/02 08:37:33;;;;;;;13.80;7.70;;;;;;;27.72;45.87;94262.31;5143726;28;20265;-80
2022/07/02 08:39:59;;;;;;;10.30;7.53;;;;;;;27.88;45.24;94262.50;5143633;28;20329;-81
2022/07/02 08:42:29;;;;;;;12.27;7.72;;;;;;;28.02;43.27;94265.00;5143595;28;20043;-81
2022/07/02 08:44:57;;;;;;;10.95;7.18;;;;;;;28.09;42.19;94268.81;5143860;28;20030;-81
2022/07/02 08:47:23;;;;;;;12.20;6.68;;;;;;;28.16;40.27;94268.72;5143412;28;20037;-83
2022/07/02 08:49:51;;;;;;;12.52;7.18;;;;;;;28.25;40.62;94274.47;5143610;28;20314;-82
2022/07/02 08:52:19;;;;;;;12.50;6.75;;;;;;;28.29;40.53;94261.47;5144081;27;20060;-80
2022/07/02 08:54:46;;;;;;;12.10;6.68;;;;;;;28.34;41.22;94268.44;5147281;27;20026;-81
2022/07/02 08:57:13;;;;;;;14.45;5.63;;;;;;;28.40;40.24;94270.28;5147505;27;20891;-81
2022/07/02 08:59:39;;;;;;;10.65;5.65;;;;;;;28.53;38.96;94275.19;5147989;27;20007;-80
2022/07/02 09:02:15;;;;;;;13.55;6.95;;;;;;;28.60;39.33;94275.84;5147636;27;20090;-80
2022/07/02 09:04:47;;;;;;;13.25;7.38;;;;;;;28.67;40.88;94268.66;5148941;27;20019;-82
2022/07/02 09:07:15;;;;;;;9.48;5.90;;;;;;;28.82;41.62;94280.91;5148315;27;20091;-86
2022/07/02 09:09:42;;;;;;;14.50;6.32;;;;;;;28.75;37.53;94265.38;5147874;27;20068;-82
2022/07/02 09:12:12;;;;;;;11.05;5.97;;;;;;;28.87;37.62;94265.97;5128713;27;20022;-78
2022/07/02 09:14:39;;;;;;;6.97;5.40;;;;;;;29.06;39.13;94267.91;5146810;27;20240;-79
2022/07/02 09:17:09;;;;;;;7.88;5.80;;;;;;;29.13;38.61;94272.53;5146683;27;20023;-78
2022/07/02 09:19:36;;;;;;;20.73;7.28;;;;;;;29.23;38.38;94259.78;5145869;27;20019;-78
2022/07/02 09:22:01;;;;;;;9.98;5.85;;;;;;;29.32;38.45;94255.25;5145169;27;20076;-79
2022/07/02 09:24:32;;;;;;;11.23;6.30;;;;;;;29.38;38.87;94261.81;5145126;27;20023;-79
2022/07/02 09:27:10;;;;;;;13.68;6.85;;;;;;;29.44;38.86;94264.81;5146214;27;20098;-79
2022/07/02 09:29:46;;;;;;;16.52;6.25;;;;;;;29.57;37.86;94252.00;5145141;27;20030;-79
2022/07/02 09:32:13;;;;;;;12.63;6.25;;;;;;;29.64;37.56;94259.31;5144756;27;20038;-79
2022/07/02 09:34:47;;;;;;;8.07;6.50;;;;;;;29.64;37.78;94251.06;5144732;27;20206;-79
2022/07/02 09:37:17;;;;;;;9.43;5.80;;;;;;;29.76;37.69;94253.16;5145151;27;20443;-79
2022/07/02 09:39:43;;;;;;;9.23;5.57;;;;;;;29.88;36.22;94259.19;5144978;27;20054;-79
2022/07/02 09:42:10;;;;;;;10.93;4.68;;;;;;;30.00;36.07;94248.31;5144754;27;20120;-79
2022/07/02 09:44:45;;;;;;;7.07;5.07;;;;;;;30.16;36.36;94253.00;5145533;27;20024;-79
2022/07/02 09:47:10;;;;;;;6.75;4.57;;;;;;;30.28;35.29;94254.28;5146142;27;20054;-79
2022/07/02 09:49:46;;;;;;;10.98;5.15;;;;;;;30.49;35.25;94258.53;5144948;27;20019;-79
2022/07/02 09:52:14;;;;;;;11.32;5.68;;;;;;;30.63;36.22;94257.34;5127547;27;20252;-79
2022/07/02 09:54:40;;;;;;;14.48;5.03;;;;;;;30.76;34.40;94249.19;5146167;27;20019;-79
2022/07/02 09:57:05;;;;;;;20.05;4.75;;;;;;;30.88;34.01;94245.72;5146096;27;20034;-79
2022/07/02 09:59:35;;;;;;;9.38;5.50;;;;;;;31.03;34.08;94251.59;5146119;27;20049;-79
2022/07/02 10:02:00;;;;;;;11.45;4.78;;;;;;;31.08;34.23;94247.53;5145875;27;20046;-79
2022/07/02 10:04:27;;;;;;;10.70;4.97;;;;;;;31.15;34.55;94241.84;5145356;27;20313;-79
2022/07/02 10:06:53;;;;;;;17.40;4.93;;;;;;;31.21;33.73;94239.34;5145135;27;20041;-79
2022/07/02 10:09:22;;;;;;;11.25;4.95;;;;;;;31.30;31.80;94236.69;5144003;27;20015;-79
2022/07/02 10:11:47;;;;;;;13.30;6.25;;;;;;;31.24;32.87;94222.69;5144358;27;20030;-79
2022/07/02 10:14:18;;;;;;;8.02;4.82;;;;;;;31.27;33.39;94227.34;5144511;27;20019;-79
2022/07/02 10:16:44;;;;;;;13.77;4.85;;;;;;;31.34;33.24;94227.09;5144404;27;20578;-79
2022/07/02 10:19:11;;;;;;;9.20;4.85;;;;;;;31.45;33.00;94226.06;5145062;27;20031;-79
2022/07/02 10:21:39;;;;;;;8.40;4.72;;;;;;;31.59;33.07;94228.41;5144978;27;20266;-79
2022/07/02 10:24:06;;;;;;;11.30;4.80;;;;;;;31.72;33.32;94228.41;5145476;27;20229;-79
2022/07/02 10:26:32;;;;;;;12.50;5.25;;;;;;;31.81;32.88;94224.97;5144436;27;20019;-79
2022/07/02 10:29:04;;;;;;;13.57;5.38;;;;;;;31.87;32.60;94220.44;5145459;27;20023;-79
2022/07/02 10:31:45;;;;;;;8.18;4.95;;;;;;;32.06;32.71;94224.97;5145360;27;20031;-79
2022/07/02 10:34:44;;;;;;;13.55;5.50;;;;;;;32.09;32.02;94212.28;5145513;27;20082;-79
2022/07/02 10:37:11;;;;;;;18.67;5.78;;;;;;;32.18;32.52;94221.44;5145420;27;20019;-79
2022/07/02 10:39:42;;;;;;;15.00;6.18;;;;;;;32.17;31.36;94208.84;5145348;27;20022;-79
2022/07/02 10:42:08;;;;;;;8.90;5.07;;;;;;;32.19;34.47;94217.44;5144887;27;20039;-79
2022/07/02 10:44:41;;;;;;;14.73;5.45;;;;;;;32.36;33.40;94206.25;5145214;27;20198;-79
2022/07/02 10:47:24;;;;;;;9.27;5.72;;;;;;;32.49;33.05;94218.03;5145273;27;20015;-79
2022/07/02 10:49:59;;;;;;;9.93;5.35;;;;;;;32.44;30.95;94209.56;5144986;27;20026;-80
2022/07/02 10:52:51;;;;;;;16.45;5.35;;;;;;;32.49;33.14;94206.25;5144663;27;20035;-80
2022/07/02 10:55:29;;;;;;;12.27;5.07;;;;;;;32.69;32.46;94200.44;5144662;27;20029;-79
2022/07/02 10:57:59;;;;;;;10.65;5.45;;;;;;;32.92;33.51;94210.28;5144538;27;20390;-79
2022/07/02 11:00:30;;;;;;;16.42;5.80;;;;;;;33.09;31.49;94208.88;5144648;27;20023;-79
2022/07/02 11:02:57;;;;;;;12.15;4.63;;;;;;;33.21;30.53;94198.22;5144449;27;20026;-79
2022/07/02 11:05:22;;;;;;;11.77;5.07;;;;;;;33.31;30.98;94203.34;5144392;27;20280;-79
2022/07/02 11:07:48;;;;;;;10.02;4.93;;;;;;;33.20;29.44;94197.44;5126050;27;20022;-79
2022/07/02 11:10:13;;;;;;;26.30;5.28;;;;;;;33.32;30.31;94204.88;5144445;27;20022;-79
2022/07/02 11:13:12;;;;;;;10.43;5.30;;;;;;;33.47;29.49;94205.09;5144249;27;20305;-79
2022/07/02 11:15:38;;;;;;;6.18;4.93;;;;;;;33.55;29.63;94202.84;5140812;27;20103;-79
2022/07/02 11:18:06;;;;;;;7.38;4.32;;;;;;;33.63;29.03;94195.84;5144433;27;20030;-79
2022/07/02 11:20:35;;;;;;;9.20;4.97;;;;;;;33.72;28.80;94195.09;5144634;27;20023;-80
2022/07/02 11:23:00;;;;;;;15.63;5.53;;;;;;;33.73;29.15;94202.19;5144357;27;20272;-80
2022/07/02 11:25:29;;;;;;;8.85;4.40;;;;;;;33.58;28.03;94197.19;5143929;27;20034;-79
2022/07/02 11:27:59;;;;;;;7.03;4.07;;;;;;;33.65;29.96;94198.16;5144138;27;20321;-79
2022/07/02 11:30:30;;;;;;;6.97;5.20;;;;;;;33.45;30.29;94195.72;5144114;27;20660;-79